createdAt,value
2018-06-12T00:00:00.508Z,1.90
2018-06-12T00:02:27.340Z,1.67
2018-06-12T00:04:54.184Z,2.27
2018-06-12T00:07:21.017Z,1.63
2018-06-12T00:09:47.842Z,2.07
2018-06-12T00:12:14.737Z,2.05
2018-06-12T00:14:41.559Z,1.50
2018-06-12T00:17:08.678Z,4.12
2018-06-12T00:19:35.468Z,1.92
2018-06-12T00:22:02.528Z,2.10
2018-06-12T00:24:29.360Z,4.10
2018-06-12T00:26:56.214Z,2.62
2018-06-12T00:29:23.031Z,2.60
2018-06-12T00:31:49.899Z,2.00
2018-06-12T00:34:16.709Z,1.93
2018-06-12T00:36:43.591Z,2.10
2018-06-12T00:39:10.411Z,1.80
2018-06-12T00:41:37.233Z,2.00
2018-06-12T00:44:04.058Z,1.63
2018-06-12T00:46:30.946Z,1.70
2018-06-12T00:48:57.782Z,1.90
2018-06-12T00:51:24.615Z,1.50
2018-06-12T00:53:51.430Z,1.57
2018-06-12T00:56:18.324Z,1.60
2018-06-12T00:58:45.147Z,1.80
2018-06-12T01:01:11.963Z,2.10
2018-06-12T01:03:38.778Z,1.93
2018-06-12T01:06:06.017Z,3.33
2018-06-12T01:08:32.749Z,3.60
2018-06-12T01:10:59.585Z,1.60
2018-06-12T01:13:26.402Z,2.20
2018-06-12T01:15:53.272Z,2.08
2018-06-12T01:18:20.101Z,2.03
2018-06-12T01:20:46.930Z,1.92
2018-06-12T01:23:13.758Z,2.40
2018-06-12T01:25:40.645Z,2.10
2018-06-12T01:28:07.469Z,2.80
2018-06-12T01:30:34.295Z,2.30
2018-06-12T01:33:01.138Z,1.80
2018-06-12T01:35:28.017Z,2.23
2018-06-12T01:37:54.827Z,2.50
2018-06-12T01:40:21.648Z,1.70
2018-06-12T01:42:48.461Z,3.70
2018-06-12T01:45:15.386Z,2.10
2018-06-12T01:47:42.213Z,2.22
2018-06-12T01:50:09.038Z,2.83
2018-06-12T01:52:35.889Z,2.00
2018-06-12T01:55:02.702Z,2.20
2018-06-12T01:57:29.522Z,2.83
2018-06-12T01:59:56.364Z,1.90
2018-06-12T02:02:23.164Z,1.80
2018-06-12T02:04:49.983Z,2.15
2018-06-12T02:07:16.803Z,1.90
2018-06-12T02:09:43.643Z,1.80
2018-06-12T02:12:10.467Z,1.80
2018-06-12T02:14:37.281Z,2.20
2018-06-12T02:17:04.145Z,1.53
2018-06-12T02:19:30.966Z,1.87
2018-06-12T02:21:57.802Z,1.93
2018-06-12T02:24:24.634Z,2.00
2018-06-12T02:26:51.515Z,1.98
2018-06-12T02:29:18.338Z,1.60
2018-06-12T02:31:45.154Z,2.77
2018-06-12T02:34:11.987Z,2.22
2018-06-12T02:36:38.885Z,1.77
2018-06-12T02:39:05.706Z,2.07
2018-06-12T02:41:32.542Z,5.03
2018-06-12T02:43:59.364Z,1.80
2018-06-12T02:46:26.259Z,1.83
2018-06-12T02:48:53.099Z,2.47
2018-06-12T02:51:19.927Z,2.00
2018-06-12T02:53:46.747Z,1.80
2018-06-12T02:56:13.657Z,1.60
2018-06-12T02:58:40.452Z,1.60
2018-06-12T03:01:07.287Z,1.70
2018-06-12T03:03:34.105Z,3.60
2018-06-12T03:06:01.040Z,2.10
2018-06-12T03:08:27.856Z,1.80
2018-06-12T03:10:54.677Z,2.00
2018-06-12T03:13:21.491Z,2.10
2018-06-12T03:15:48.374Z,2.00
2018-06-12T03:18:15.212Z,1.53
2018-06-12T03:20:42.024Z,1.95
2018-06-12T03:23:08.889Z,1.65
2018-06-12T03:25:35.746Z,1.77
2018-06-12T03:28:02.573Z,2.87
2018-06-12T03:30:29.399Z,2.13
2018-06-12T03:32:56.230Z,2.00
2018-06-12T03:35:23.115Z,2.20
2018-06-12T03:37:49.932Z,1.63
2018-06-12T03:40:16.752Z,1.60
2018-06-12T03:42:43.681Z,2.13
2018-06-12T03:45:10.503Z,2.20
2018-06-12T03:47:37.346Z,3.07
2018-06-12T03:50:04.177Z,2.10
2018-06-12T03:52:31.011Z,1.92
2018-06-12T03:54:57.895Z,1.92
2018-06-12T03:57:24.674Z,1.90
2018-06-12T03:59:51.497Z,1.70
2018-06-12T04:02:18.756Z,2.40
2018-06-12T04:04:45.594Z,7.03
2018-06-12T04:07:12.494Z,1.67
2018-06-12T04:09:39.293Z,1.83
2018-06-12T04:12:06.162Z,2.10
2018-06-12T04:14:33.587Z,5.90
2018-06-12T04:17:00.475Z,6.53
2018-06-12T04:19:27.303Z,9.35
2018-06-12T04:21:54.146Z,12.70
2018-06-12T04:24:20.980Z,14.37
2018-06-12T04:26:47.840Z,16.10
2018-06-12T04:29:14.683Z,13.00
2018-06-12T04:31:41.518Z,10.90
2018-06-12T04:34:08.338Z,10.43
2018-06-12T04:36:35.208Z,8.50
2018-06-12T04:39:02.028Z,7.83
2018-06-12T04:41:28.851Z,11.00
2018-06-12T04:43:55.731Z,7.07
2018-06-12T04:46:22.624Z,8.60
2018-06-12T04:48:49.439Z,17.80
2018-06-12T04:51:16.265Z,10.30
2018-06-12T04:53:43.090Z,10.47
2018-06-12T04:56:09.956Z,9.00
2018-06-12T04:58:36.766Z,9.67
2018-06-12T05:01:03.590Z,8.68
2018-06-12T05:03:30.431Z,5.53
2018-06-12T05:05:57.327Z,9.70
2018-06-12T05:08:24.181Z,7.17
2018-06-12T05:10:51.005Z,5.73
2018-06-12T05:13:17.878Z,8.13
2018-06-12T05:15:44.957Z,6.90
2018-06-12T05:18:11.730Z,7.37
2018-06-12T05:20:38.577Z,7.23
2018-06-12T05:23:05.395Z,6.47
2018-06-12T05:25:32.322Z,11.93
2018-06-12T05:27:59.564Z,6.00
2018-06-12T05:30:26.391Z,8.00
2018-06-12T05:32:53.214Z,7.93
2018-06-12T05:35:20.058Z,9.60
2018-06-12T05:37:46.917Z,9.33
2018-06-12T05:40:13.758Z,5.60
2018-06-12T05:42:40.579Z,7.00
2018-06-12T05:45:07.412Z,6.08
2018-06-12T05:47:34.243Z,5.22
2018-06-12T05:50:01.069Z,8.57
2018-06-12T05:52:27.901Z,7.23
2018-06-12T05:54:54.796Z,7.90
2018-06-12T05:57:21.630Z,7.43
2018-06-12T05:59:48.465Z,10.90
2018-06-12T06:02:15.775Z,7.97
2018-06-12T06:04:42.584Z,5.60
2018-06-12T06:07:09.428Z,6.37
2018-06-12T06:09:36.255Z,9.80
2018-06-12T06:12:03.106Z,11.60
2018-06-12T06:14:29.964Z,11.00
2018-06-12T06:16:56.825Z,5.63
2018-06-12T06:19:23.627Z,12.53
2018-06-12T06:21:50.453Z,5.30
2018-06-12T06:24:17.284Z,5.50
2018-06-12T06:26:44.167Z,6.37
2018-06-12T06:29:10.998Z,6.20
2018-06-12T06:31:37.825Z,9.27
2018-06-12T06:34:04.711Z,5.83
2018-06-12T06:36:31.569Z,13.10
2018-06-12T06:38:58.392Z,10.20
2018-06-12T06:41:25.219Z,7.55
2018-06-12T06:43:52.078Z,13.22
2018-06-12T06:46:18.909Z,9.67
2018-06-12T06:48:45.746Z,7.67
2018-06-12T06:51:12.570Z,6.80
2018-06-12T06:53:39.447Z,7.13
2018-06-12T06:56:06.287Z,8.73
2018-06-12T06:58:33.123Z,8.67
2018-06-12T07:00:59.962Z,12.37
2018-06-12T07:03:26.837Z,10.70
2018-06-12T07:05:53.859Z,8.15
2018-06-12T07:08:20.683Z,12.90
2018-06-12T07:10:47.517Z,10.70
2018-06-12T07:13:14.342Z,14.75
2018-06-12T07:15:41.230Z,8.05
2018-06-12T07:18:08.055Z,9.37
2018-06-12T07:20:34.888Z,10.33
2018-06-12T07:23:01.715Z,12.97
2018-06-12T07:25:28.598Z,31.83
2018-06-12T07:27:55.451Z,27.10
2018-06-12T07:30:22.335Z,18.00
2018-06-12T07:32:49.170Z,21.20
2018-06-12T07:35:16.174Z,20.92
2018-06-12T07:37:43.174Z,21.00
2018-06-12T07:40:09.828Z,18.65
2018-06-12T07:42:36.689Z,13.22
2018-06-12T07:45:03.507Z,10.90
2018-06-12T07:47:30.326Z,11.10
2018-06-12T07:49:57.152Z,12.30
2018-06-12T07:52:23.987Z,14.17
2018-06-12T07:54:50.812Z,18.77
2018-06-12T07:57:17.665Z,14.97
2018-06-12T07:59:44.502Z,21.33
2018-06-12T08:02:12.232Z,18.85
2018-06-12T08:04:38.948Z,18.50
2018-06-12T08:07:06.018Z,13.50
2018-06-12T08:09:32.790Z,11.00
2018-06-12T08:11:59.625Z,9.10
2018-06-12T08:14:26.456Z,15.87
2018-06-12T08:16:53.333Z,13.27
2018-06-12T08:19:20.158Z,7.20
2018-06-12T08:21:47.005Z,8.58
2018-06-12T08:24:13.824Z,9.98
2018-06-12T08:26:40.699Z,10.10
2018-06-12T08:29:07.535Z,16.20
2018-06-12T08:31:34.368Z,14.93
2018-06-12T08:34:01.198Z,13.50
2018-06-12T08:36:28.073Z,11.00
2018-06-12T08:38:54.907Z,11.57
2018-06-12T08:41:21.733Z,15.80
2018-06-12T08:43:48.574Z,12.18
2018-06-12T08:46:15.438Z,10.90
2018-06-12T08:48:42.268Z,9.93
2018-06-12T08:51:09.096Z,12.73
2018-06-12T08:53:35.935Z,8.80
2018-06-12T08:56:02.816Z,8.90
2018-06-12T08:58:29.639Z,9.20
2018-06-12T09:00:56.471Z,12.30
2018-06-12T09:03:23.338Z,10.87
2018-06-12T09:05:50.184Z,10.67
2018-06-12T09:08:17.069Z,9.57
2018-06-12T09:10:43.853Z,7.27
2018-06-12T09:13:10.682Z,14.05
2018-06-12T09:15:37.597Z,11.30
2018-06-12T09:18:04.416Z,6.97
2018-06-12T09:20:31.239Z,13.17
2018-06-12T09:22:58.088Z,9.37
2018-06-12T09:25:25.137Z,11.20
2018-06-12T09:27:51.952Z,6.90
2018-06-12T09:30:19.477Z,10.10
2018-06-12T09:32:46.271Z,8.10
2018-06-12T09:35:13.117Z,10.93
2018-06-12T09:37:39.956Z,7.50
2018-06-12T09:40:06.782Z,9.10
2018-06-12T09:42:33.611Z,7.30
2018-06-12T09:45:00.450Z,7.87
2018-06-12T09:47:27.288Z,8.00
2018-06-12T09:49:54.141Z,10.80
2018-06-12T09:52:20.940Z,8.30
2018-06-12T09:54:48.146Z,7.03
2018-06-12T09:57:14.901Z,8.47
2018-06-12T09:59:41.716Z,10.90
2018-06-12T10:02:08.554Z,6.70
2018-06-12T10:04:35.388Z,14.00
2018-06-12T10:07:02.293Z,10.40
2018-06-12T10:09:29.114Z,12.27
2018-06-12T10:11:56.006Z,8.50
2018-06-12T10:14:22.803Z,8.63
2018-06-12T10:16:49.649Z,7.00
2018-06-12T10:19:16.487Z,13.07
2018-06-12T10:21:43.314Z,14.50
2018-06-12T10:24:10.143Z,13.98
2018-06-12T10:26:37.026Z,8.20
2018-06-12T10:29:03.854Z,13.27
2018-06-12T10:31:30.682Z,9.08
2018-06-12T10:33:57.516Z,9.88
2018-06-12T10:36:24.426Z,15.47
2018-06-12T10:38:51.654Z,11.90
2018-06-12T10:41:18.794Z,10.35
2018-06-12T10:43:45.548Z,8.40
2018-06-12T10:46:13.000Z,8.43
2018-06-12T10:48:39.818Z,6.80
2018-06-12T10:51:06.670Z,11.70
2018-06-12T10:53:33.518Z,7.42
2018-06-12T10:56:00.882Z,10.48
2018-06-12T10:58:27.620Z,5.80
2018-06-12T11:00:54.442Z,7.72
2018-06-12T11:03:21.269Z,10.45
2018-06-12T11:05:48.144Z,6.85
2018-06-12T11:08:14.996Z,8.23
2018-06-12T11:10:41.794Z,8.10
2018-06-12T11:13:08.631Z,12.43
2018-06-12T11:15:35.512Z,10.40
2018-06-12T11:18:02.341Z,8.40
2018-06-12T11:20:29.162Z,11.80
2018-06-12T11:22:56.158Z,5.20
2018-06-12T11:25:23.101Z,8.90
2018-06-12T11:27:49.918Z,8.23
2018-06-12T11:30:17.496Z,6.95
2018-06-12T11:32:44.299Z,9.27
2018-06-12T11:35:11.295Z,8.83
2018-06-12T11:37:38.124Z,7.30
2018-06-12T11:40:05.599Z,12.73
2018-06-12T11:42:32.624Z,4.83
2018-06-12T11:44:59.429Z,10.78
2018-06-12T11:47:26.675Z,11.57
2018-06-12T11:49:53.539Z,8.00
2018-06-12T11:52:20.349Z,7.30
2018-06-12T11:54:47.257Z,6.85
2018-06-12T11:57:14.085Z,7.65
2018-06-12T11:59:40.905Z,8.50
2018-06-12T12:02:07.729Z,6.83
2018-06-12T12:04:34.552Z,9.60
2018-06-12T12:07:01.492Z,6.17
2018-06-12T12:09:28.300Z,11.03
2018-06-12T12:11:55.133Z,11.03
2018-06-12T12:14:21.974Z,7.97
2018-06-12T12:16:48.881Z,4.87
2018-06-12T12:19:15.680Z,13.10
2018-06-12T12:21:42.514Z,7.00
2018-06-12T12:24:09.340Z,10.80
2018-06-12T12:26:36.216Z,5.83
2018-06-12T12:29:03.051Z,7.57
2018-06-12T12:31:29.894Z,6.03
2018-06-12T12:33:56.711Z,6.00
2018-06-12T12:36:23.587Z,7.80
2018-06-12T12:38:50.408Z,8.80
2018-06-12T12:41:17.225Z,6.03
2018-06-12T12:43:44.068Z,5.65
2018-06-12T12:46:10.954Z,13.30
2018-06-12T12:48:37.762Z,7.00
2018-06-12T12:51:04.596Z,8.67
2018-06-12T12:53:31.406Z,13.80
2018-06-12T12:55:58.328Z,9.13
2018-06-12T12:58:25.175Z,9.97
2018-06-12T13:00:51.994Z,7.30
2018-06-12T13:03:18.935Z,7.07
2018-06-12T13:05:45.910Z,5.23
2018-06-12T13:08:12.812Z,5.10
2018-06-12T13:10:39.578Z,6.92
2018-06-12T13:13:07.634Z,7.87
2018-06-12T13:15:34.501Z,5.93
2018-06-12T13:18:01.592Z,5.80
2018-06-12T13:20:29.254Z,8.07
2018-06-12T13:22:57.326Z,9.30
2018-06-12T13:25:25.033Z,6.13
2018-06-12T13:27:51.882Z,6.07
2018-06-12T13:30:19.495Z,8.20
2018-06-12T13:32:46.301Z,8.13
2018-06-12T13:35:13.135Z,9.08
2018-06-12T13:37:40.011Z,11.35
2018-06-12T13:40:07.972Z,14.60
2018-06-12T13:42:36.119Z,9.63
2018-06-12T13:45:03.277Z,11.77
2018-06-12T13:47:30.094Z,12.43
2018-06-12T13:49:56.938Z,7.15
2018-06-12T13:52:23.762Z,7.30
2018-06-12T13:54:50.661Z,11.18
2018-06-12T13:57:17.439Z,7.57
2018-06-12T13:59:44.280Z,7.93
2018-06-12T14:02:11.109Z,10.83
2018-06-12T14:04:37.925Z,7.20
2018-06-12T14:07:04.997Z,15.80
2018-06-12T14:09:31.786Z,11.17
2018-06-12T14:11:58.614Z,8.73
2018-06-12T14:14:25.447Z,18.83
2018-06-12T14:16:52.338Z,9.48
2018-06-12T14:19:19.167Z,10.35
2018-06-12T14:21:45.986Z,7.22
2018-06-12T14:24:12.808Z,8.80
2018-06-12T14:26:39.704Z,6.00
2018-06-12T14:29:06.522Z,5.57
2018-06-12T14:31:33.361Z,5.93
2018-06-12T14:34:00.245Z,8.80
2018-06-12T14:36:27.092Z,9.70
2018-06-12T14:38:53.918Z,8.77
2018-06-12T14:41:20.750Z,9.73
2018-06-12T14:43:47.573Z,6.40
2018-06-12T14:46:14.454Z,7.53
2018-06-12T14:48:41.286Z,6.13
2018-06-12T14:51:08.132Z,13.07
2018-06-12T14:53:34.938Z,11.00
2018-06-12T14:56:01.821Z,6.50
2018-06-12T14:58:28.641Z,7.10
2018-06-12T15:00:55.478Z,16.53
2018-06-12T15:03:22.333Z,8.93
2018-06-12T15:05:49.214Z,7.40
2018-06-12T15:08:16.029Z,8.00
2018-06-12T15:10:42.866Z,7.53
2018-06-12T15:13:09.725Z,6.80
2018-06-12T15:15:37.128Z,6.87
2018-06-12T15:18:03.924Z,8.50
2018-06-12T15:20:31.052Z,9.75
2018-06-12T15:22:57.880Z,9.43
2018-06-12T15:25:25.633Z,17.45
2018-06-12T15:27:52.607Z,7.87
2018-06-12T15:30:20.552Z,9.53
2018-06-12T15:32:47.350Z,10.27
2018-06-12T15:35:15.054Z,4.67
2018-06-12T15:37:41.870Z,5.20
2018-06-12T15:40:09.385Z,4.50
2018-06-12T15:42:36.184Z,5.37
2018-06-12T15:45:03.028Z,7.65
2018-06-12T15:47:30.280Z,6.67
2018-06-12T15:49:57.101Z,4.90
2018-06-12T15:52:23.954Z,11.80
2018-06-12T15:54:50.807Z,9.15
2018-06-12T15:57:17.617Z,11.20
2018-06-12T15:59:44.446Z,14.03
2018-06-12T16:02:11.265Z,7.50
2018-06-12T16:04:38.091Z,5.70
2018-06-12T16:07:04.977Z,5.27
2018-06-12T16:09:31.798Z,9.50
2018-06-12T16:11:58.630Z,8.23
2018-06-12T16:14:25.474Z,5.00
2018-06-12T16:16:52.353Z,6.70
2018-06-12T16:19:19.199Z,5.33
2018-06-12T16:21:46.040Z,5.67
2018-06-12T16:24:12.857Z,8.13
2018-06-12T16:26:39.720Z,8.60
2018-06-12T16:29:06.548Z,15.30
2018-06-12T16:31:33.410Z,9.80
2018-06-12T16:34:00.267Z,12.90
2018-06-12T16:36:27.302Z,7.03
2018-06-12T16:38:54.126Z,9.77
2018-06-12T16:41:20.970Z,8.83
2018-06-12T16:43:47.781Z,12.65
2018-06-12T16:46:14.689Z,11.78
2018-06-12T16:48:41.511Z,11.68
2018-06-12T16:51:08.335Z,8.80
2018-06-12T16:53:35.351Z,8.10
2018-06-12T16:56:02.695Z,9.83
2018-06-12T16:58:29.549Z,7.53
2018-06-12T17:00:56.450Z,8.70
2018-06-12T17:03:23.296Z,6.85
2018-06-12T17:05:51.707Z,7.47
2018-06-12T17:08:19.115Z,14.20
2018-06-12T17:10:45.834Z,8.27
2018-06-12T17:13:12.695Z,10.10
2018-06-12T17:15:39.701Z,4.10
2018-06-12T17:18:06.561Z,7.83
2018-06-12T17:20:33.956Z,11.17
2018-06-12T17:23:00.781Z,12.53
2018-06-12T17:25:27.638Z,8.97
2018-06-12T17:27:54.487Z,15.10
2018-06-12T17:30:21.314Z,16.93
2018-06-12T17:32:48.137Z,4.40
2018-06-12T17:35:15.015Z,10.23
2018-06-12T17:37:41.870Z,21.47
2018-06-12T17:40:08.686Z,7.93
2018-06-12T17:42:39.738Z,8.68
2018-06-12T17:45:06.542Z,12.33
2018-06-12T17:47:33.384Z,11.00
2018-06-12T17:50:00.212Z,5.42
2018-06-12T17:52:27.045Z,8.58
2018-06-12T17:54:53.969Z,13.30
2018-06-12T17:57:20.698Z,6.77
2018-06-12T17:59:47.512Z,11.60
2018-06-12T18:02:14.355Z,7.87
2018-06-12T18:04:41.164Z,6.73
2018-06-12T18:07:08.063Z,4.80
2018-06-12T18:09:34.891Z,11.57
2018-06-12T18:12:01.811Z,6.37
2018-06-12T18:14:28.626Z,8.28
2018-06-12T18:16:55.642Z,7.60
2018-06-12T18:19:22.474Z,5.65
2018-06-12T18:21:49.320Z,9.00
2018-06-12T18:24:16.150Z,8.37
2018-06-12T18:26:43.010Z,4.97
2018-06-12T18:29:09.830Z,6.07
2018-06-12T18:31:36.654Z,6.10
2018-06-12T18:34:03.537Z,6.67
2018-06-12T18:36:30.380Z,6.67
2018-06-12T18:38:57.211Z,6.60
2018-06-12T18:41:24.052Z,4.08
2018-06-12T18:43:50.960Z,4.70
2018-06-12T18:46:17.750Z,7.43
2018-06-12T18:48:44.586Z,4.60
2018-06-12T18:51:11.412Z,6.30
2018-06-12T18:53:38.258Z,5.60
2018-06-12T18:56:05.134Z,16.80
2018-06-12T18:58:31.959Z,5.50
2018-06-12T19:00:58.787Z,14.33
2018-06-12T19:03:25.942Z,19.63
2018-06-12T19:05:52.934Z,23.80
2018-06-12T19:08:19.783Z,22.83
2018-06-12T19:10:46.688Z,11.80
2018-06-12T19:13:13.515Z,11.18
2018-06-12T19:15:40.528Z,13.05
2018-06-12T19:18:07.341Z,13.22
2018-06-12T19:20:35.218Z,10.13
2018-06-12T19:23:02.060Z,12.47
2018-06-12T19:25:28.906Z,6.78
2018-06-12T19:27:55.728Z,13.03
2018-06-12T19:30:22.580Z,11.40
2018-06-12T19:32:49.489Z,10.20
2018-06-12T19:35:16.460Z,8.10
2018-06-12T19:37:43.325Z,6.63
2018-06-12T19:40:10.148Z,8.70
2018-06-12T19:42:36.982Z,8.47
2018-06-12T19:45:03.811Z,9.40
2018-06-12T19:47:31.612Z,7.37
2018-06-12T19:49:58.519Z,7.80
2018-06-12T19:52:25.348Z,5.78
2018-06-12T19:54:52.218Z,5.45
2018-06-12T19:57:19.036Z,6.80
2018-06-12T19:59:45.928Z,6.87
2018-06-12T20:02:12.761Z,16.63
2018-06-12T20:04:39.607Z,6.73
2018-06-12T20:07:06.445Z,8.20
2018-06-12T20:09:33.292Z,9.43
2018-06-12T20:12:00.161Z,13.47
2018-06-12T20:14:26.977Z,17.87
2018-06-12T20:16:53.827Z,12.98
2018-06-12T20:19:20.670Z,11.60
2018-06-12T20:21:47.535Z,7.63
2018-06-12T20:24:14.342Z,6.37
2018-06-12T20:26:41.195Z,10.50
2018-06-12T20:29:08.020Z,10.83
2018-06-12T20:31:34.884Z,7.47
2018-06-12T20:34:01.706Z,8.73
2018-06-12T20:36:28.550Z,8.43
2018-06-12T20:38:55.383Z,11.00
2018-06-12T20:41:22.222Z,7.85
2018-06-12T20:43:49.047Z,6.77
2018-06-12T20:46:15.970Z,6.90
2018-06-12T20:48:42.777Z,12.90
2018-06-12T20:51:09.645Z,7.53
2018-06-12T20:53:36.493Z,6.80
2018-06-12T20:56:03.503Z,6.70
2018-06-12T20:58:30.334Z,10.93
2018-06-12T21:00:57.154Z,12.37
2018-06-12T21:03:23.980Z,6.70
2018-06-12T21:05:50.860Z,7.92
2018-06-12T21:08:17.696Z,9.30
2018-06-12T21:10:45.046Z,6.90
2018-06-12T21:13:11.834Z,6.07
2018-06-12T21:15:38.883Z,8.38
2018-06-12T21:18:05.706Z,7.00
2018-06-12T21:20:32.554Z,5.95
2018-06-12T21:22:59.448Z,6.42
2018-06-12T21:25:26.441Z,7.03
2018-06-12T21:27:53.281Z,6.05
2018-06-12T21:30:20.160Z,5.97
2018-06-12T21:32:46.945Z,6.57
2018-06-12T21:35:14.208Z,5.45
2018-06-12T21:37:41.363Z,7.70
2018-06-12T21:40:08.332Z,6.30
2018-06-12T21:42:35.147Z,6.03
2018-06-12T21:45:02.044Z,5.72
2018-06-12T21:47:29.933Z,5.95
2018-06-12T21:49:57.577Z,6.57
2018-06-12T21:52:24.399Z,5.90
2018-06-12T21:54:51.315Z,5.87
2018-06-12T21:57:18.719Z,6.12
2018-06-12T21:59:45.513Z,6.33
2018-06-12T22:02:12.334Z,8.00
2018-06-12T22:04:39.367Z,6.75
2018-06-12T22:07:06.254Z,12.78
2018-06-12T22:09:33.076Z,5.78
2018-06-12T22:11:59.893Z,5.35
2018-06-12T22:14:26.718Z,6.33
2018-06-12T22:16:53.611Z,5.90
2018-06-12T22:19:20.444Z,8.20
2018-06-12T22:21:47.246Z,6.20
2018-06-12T22:24:14.071Z,6.73
2018-06-12T22:26:40.990Z,6.73
2018-06-12T22:29:07.816Z,5.67
2018-06-12T22:31:34.637Z,6.37
2018-06-12T22:34:01.471Z,5.92
2018-06-12T22:36:28.358Z,7.20
2018-06-12T22:38:55.184Z,6.07
2018-06-12T22:41:22.037Z,6.50
2018-06-12T22:43:48.872Z,6.20
2018-06-12T22:46:15.730Z,7.30
2018-06-12T22:48:42.557Z,5.90
2018-06-12T22:51:09.401Z,6.50
2018-06-12T22:53:36.231Z,5.78
2018-06-12T22:56:03.068Z,6.42
2018-06-12T22:58:29.882Z,6.53
2018-06-12T23:00:56.681Z,5.80
2018-06-12T23:03:23.466Z,7.17
2018-06-12T23:05:50.446Z,6.10
2018-06-12T23:08:17.284Z,9.47
2018-06-12T23:10:44.116Z,6.63
2018-06-12T23:13:10.940Z,6.73
2018-06-12T23:15:37.838Z,16.48
2018-06-12T23:18:04.653Z,7.50
2018-06-12T23:20:31.473Z,6.75
2018-06-12T23:22:58.324Z,6.12
2018-06-12T23:25:25.187Z,6.45
2018-06-12T23:27:51.977Z,6.67
2018-06-12T23:30:18.775Z,6.80
2018-06-12T23:32:45.559Z,7.53
2018-06-12T23:35:12.554Z,10.23
2018-06-12T23:37:39.348Z,6.23
2018-06-12T23:40:06.536Z,6.17
2018-06-12T23:42:33.268Z,6.80
2018-06-12T23:45:00.093Z,8.53
2018-06-12T23:47:27.302Z,6.83
2018-06-12T23:49:54.035Z,5.67
2018-06-12T23:52:20.867Z,6.80
2018-06-12T23:54:47.684Z,6.17
2018-06-12T23:57:14.506Z,6.78
2018-06-12T23:59:41.315Z,5.90
